sensor_id;sensor_type;location;lat;lon;timestamp;pressure;altitude;pressure_sealevel;temperature;humidity
8585;BME280;7180;52.742;11.420;2023-01-01T00:00:31;98651.03;;;14.30;81.37
8585;BME280;7180;52.742;11.420;2023-01-01T00:02:57;98632.06;;;14.34;81.48
8585;BME280;7180;52.742;11.420;2023-01-01T00:05:22;98619.34;;;14.38;80.91
8585;BME280;7180;52.742;11.420;2023-01-01T00:07:47;98582.34;;;14.38;80.94
8585;BME280;7180;52.742;11.420;2023-01-01T00:10:12;98633.16;;;14.24;81.17
8585;BME280;7180;52.742;11.420;2023-01-01T00:12:53;98609.06;;;14.27;81.13
8585;BME280;7180;52.742;11.420;2023-01-01T00:15:18;98631.13;;;14.18;81.68
8585;BME280;7180;52.742;11.420;2023-01-01T00:17:44;98690.38;;;14.33;81.62
8585;BME280;7180;52.742;11.420;2023-01-01T00:20:09;98646.56;;;14.30;81.33
8585;BME280;7180;52.742;11.420;2023-01-01T00:22:35;98627.91;;;14.32;80.78
8585;BME280;7180;52.742;11.420;2023-01-01T00:25:00;98569.63;;;14.41;80.42
8585;BME280;7180;52.742;11.420;2023-01-01T00:27:25;98562.50;;;14.34;80.76
8585;BME280;7180;52.742;11.420;2023-01-01T00:29:51;98568.09;;;14.31;80.73
8585;BME280;7180;52.742;11.420;2023-01-01T00:32:16;98587.91;;;14.27;80.91
8585;BME280;7180;52.742;11.420;2023-01-01T00:34:41;98588.50;;;14.21;80.84
8585;BME280;7180;52.742;11.420;2023-01-01T00:37:06;98601.44;;;14.24;80.92
8585;BME280;7180;52.742;11.420;2023-01-01T00:39:32;98629.31;;;14.18;81.15
8585;BME280;7180;52.742;11.420;2023-01-01T00:41:57;98650.31;;;14.20;81.02
8585;BME280;7180;52.742;11.420;2023-01-01T00:44:22;98632.16;;;14.25;80.95
8585;BME280;7180;52.742;11.420;2023-01-01T00:46:47;98592.50;;;14.17;81.26
8585;BME280;7180;52.742;11.420;2023-01-01T00:49:13;98640.16;;;14.07;81.44
8585;BME280;7180;52.742;11.420;2023-01-01T00:51:38;98661.16;;;14.09;81.11
8585;BME280;7180;52.742;11.420;2023-01-01T00:54:03;98690.53;;;14.06;81.72
8585;BME280;7180;52.742;11.420;2023-01-01T00:56:29;98696.13;;;14.03;81.68
8585;BME280;7180;52.742;11.420;2023-01-01T00:58:54;98685.94;;;14.16;81.34
8585;BME280;7180;52.742;11.420;2023-01-01T01:01:19;98630.00;;;14.20;81.15
8585;BME280;7180;52.742;11.420;2023-01-01T01:03:45;98611.97;;;14.16;80.80
8585;BME280;7180;52.742;11.420;2023-01-01T01:06:11;98592.28;;;14.10;80.48
8585;BME280;7180;52.742;11.420;2023-01-01T01:08:39;98620.72;;;14.16;80.75
8585;BME280;7180;52.742;11.420;2023-01-01T01:11:10;98614.59;;;14.08;80.92
8585;BME280;7180;52.742;11.420;2023-01-01T01:13:36;98599.41;;;14.18;80.83
8585;BME280;7180;52.742;11.420;2023-01-01T01:16:10;98561.59;;;14.17;80.18
8585;BME280;7180;52.742;11.420;2023-01-01T01:18:36;98553.53;;;14.19;79.64
8585;BME280;7180;52.742;11.420;2023-01-01T01:21:01;98544.41;;;14.21;80.21
8585;BME280;7180;52.742;11.420;2023-01-01T01:23:27;98519.16;;;14.19;80.03
8585;BME280;7180;52.742;11.420;2023-01-01T01:25:52;98511.09;;;14.28;79.66
8585;BME280;7180;52.742;11.420;2023-01-01T01:28:17;98469.63;;;14.29;79.13
8585;BME280;7180;52.742;11.420;2023-01-01T01:30:43;98473.94;;;14.38;79.05
8585;BME280;7180;52.742;11.420;2023-01-01T01:33:08;98406.84;;;14.39;78.34
8585;BME280;7180;52.742;11.420;2023-01-01T01:35:33;98422.25;;;14.27;78.61
8585;BME280;7180;52.742;11.420;2023-01-01T01:37:58;98469.94;;;14.26;78.88
8585;BME280;7180;52.742;11.420;2023-01-01T01:40:24;98435.59;;;14.34;78.37
8585;BME280;7180;52.742;11.420;2023-01-01T01:42:50;98370.34;;;14.42;78.12
8585;BME280;7180;52.742;11.420;2023-01-01T01:45:16;98380.44;;;14.31;78.46
8585;BME280;7180;52.742;11.420;2023-01-01T01:47:49;98407.19;;;14.44;77.93
8585;BME280;7180;52.742;11.420;2023-01-01T01:50:28;98338.94;;;14.39;77.57
8585;BME280;7180;52.742;11.420;2023-01-01T01:53:05;98354.34;;;14.44;77.50
8585;BME280;7180;52.742;11.420;2023-01-01T01:55:37;98324.91;;;14.39;77.85
8585;BME280;7180;52.742;11.420;2023-01-01T01:58:04;98332.16;;;14.45;77.20
8585;BME280;7180;52.742;11.420;2023-01-01T02:00:32;98267.22;;;14.50;76.85
8585;BME280;7180;52.742;11.420;2023-01-01T02:03:04;98294.81;;;14.48;76.79
8585;BME280;7180;52.742;11.420;2023-01-01T02:05:31;98288.25;;;14.44;77.08
8585;BME280;7180;52.742;11.420;2023-01-01T02:07:58;98316.78;;;14.48;77.05
8585;BME280;7180;52.742;11.420;2023-01-01T02:10:25;98327.03;;;14.51;77.34
8585;BME280;7180;52.742;11.420;2023-01-01T02:12:51;98259.63;;;14.47;76.92
8585;BME280;7180;52.742;11.420;2023-01-01T02:15:16;98269.56;;;14.45;76.93
8585;BME280;7180;52.742;11.420;2023-01-01T02:18:05;98292.19;;;14.40;76.82
8585;BME280;7180;52.742;11.420;2023-01-01T02:20:52;98295.66;;;14.48;77.12
8585;BME280;7180;52.742;11.420;2023-01-01T02:23:30;98246.91;;;14.51;76.56
8585;BME280;7180;52.742;11.420;2023-01-01T02:31:03;98232.31;;;14.55;76.34
8585;BME280;7180;52.742;11.420;2023-01-01T02:33:28;98232.88;;;14.42;76.49
8585;BME280;7180;52.742;11.420;2023-01-01T02:35:58;98217.28;;;14.55;76.12
8585;BME280;7180;52.742;11.420;2023-01-01T02:38:36;98180.97;;;14.49;75.97
8585;BME280;7180;52.742;11.420;2023-01-01T02:41:05;98210.56;;;14.45;75.84
8585;BME280;7180;52.742;11.420;2023-01-01T02:43:30;98209.72;;;14.52;75.97
8585;BME280;7180;52.742;11.420;2023-01-01T02:45:56;98182.81;;;14.41;76.23
8585;BME280;7180;52.742;11.420;2023-01-01T02:48:44;98206.78;;;14.39;76.44
8585;BME280;7180;52.742;11.420;2023-01-01T02:54:07;98216.22;;;14.34;76.25
8585;BME280;7180;52.742;11.420;2023-01-01T02:56:46;98243.97;;;14.30;76.47
8585;BME280;7180;52.742;11.420;2023-01-01T03:05:09;98302.47;;;14.19;77.05
8585;BME280;7180;52.742;11.420;2023-01-01T03:15:49;98241.31;;;14.38;76.13
8585;BME280;7180;52.742;11.420;2023-01-01T03:20:55;98261.50;;;14.31;75.87
8585;BME280;7180;52.742;11.420;2023-01-01T03:23:29;98290.88;;;14.20;76.58
8585;BME280;7180;52.742;11.420;2023-01-01T03:25:59;98315.34;;;14.22;76.61
8585;BME280;7180;52.742;11.420;2023-01-01T03:28:31;98339.78;;;14.24;76.80
8585;BME280;7180;52.742;11.420;2023-01-01T03:30:59;98308.06;;;14.24;76.29
8585;BME280;7180;52.742;11.420;2023-01-01T03:33:35;98329.53;;;14.21;76.46
8585;BME280;7180;52.742;11.420;2023-01-01T03:36:06;98327.53;;;14.23;76.53
8585;BME280;7180;52.742;11.420;2023-01-01T03:38:45;98323.25;;;14.14;76.42
8585;BME280;7180;52.742;11.420;2023-01-01T03:41:46;98369.34;;;14.03;76.62
8585;BME280;7180;52.742;11.420;2023-01-01T03:46:43;98366.03;;;14.17;76.59
8585;BME280;7180;52.742;11.420;2023-01-01T03:49:10;98363.56;;;14.24;76.46
8585;BME280;7180;52.742;11.420;2023-01-01T03:51:57;98339.28;;;14.20;76.22
8585;BME280;7180;52.742;11.420;2023-01-01T04:02:06;98318.16;;;14.20;76.27
8585;BME280;7180;52.742;11.420;2023-01-01T04:04:33;98342.91;;;14.03;76.62
8585;BME280;7180;52.742;11.420;2023-01-01T04:06:59;98380.75;;;14.04;76.63
8585;BME280;7180;52.742;11.420;2023-01-01T04:09:29;98309.22;;;14.21;75.93
8585;BME280;7180;52.742;11.420;2023-01-01T04:11:56;98288.06;;;14.21;75.65
8585;BME280;7180;52.742;11.420;2023-01-01T04:14:27;98225.13;;;14.25;75.17
8585;BME280;7180;52.742;11.420;2023-01-01T04:16:53;98198.03;;;14.23;74.92
8585;BME280;7180;52.742;11.420;2023-01-01T04:19:19;98198.88;;;14.15;75.35
8585;BME280;7180;52.742;11.420;2023-01-01T04:21:44;98189.34;;;14.06;75.18
8585;BME280;7180;52.742;11.420;2023-01-01T04:24:09;98185.69;;;14.15;74.67
8585;BME280;7180;52.742;11.420;2023-01-01T04:26:35;98141.41;;;14.17;74.35
8585;BME280;7180;52.742;11.420;2023-01-01T04:29:00;98088.44;;;14.11;74.47
8585;BME280;7180;52.742;11.420;2023-01-01T04:31:25;98093.53;;;14.20;74.09
8585;BME280;7180;52.742;11.420;2023-01-01T04:33:53;98086.81;;;14.02;74.05
8585;BME280;7180;52.742;11.420;2023-01-01T04:36:19;98084.41;;;14.23;73.78
8585;BME280;7180;52.742;11.420;2023-01-01T04:38:44;98022.38;;;14.11;73.72
8585;BME280;7180;52.742;11.420;2023-01-01T04:41:09;98058.34;;;14.20;73.63
8585;BME280;7180;52.742;11.420;2023-01-01T04:43:34;98036.28;;;14.05;73.52
8585;BME280;7180;52.742;11.420;2023-01-01T04:46:02;98091.94;;;14.03;74.03
8585;BME280;7180;52.742;11.420;2023-01-01T04:48:28;98062.00;;;14.19;73.37
8585;BME280;7180;52.742;11.420;2023-01-01T04:50:59;98017.09;;;14.11;73.22
8585;BME280;7180;52.742;11.420;2023-01-01T04:53:28;98043.97;;;14.22;73.33
8585;BME280;7180;52.742;11.420;2023-01-01T04:55:53;97966.97;;;14.25;72.71
8585;BME280;7180;52.742;11.420;2023-01-01T04:58:19;97906.97;;;14.34;72.37
8585;BME280;7180;52.742;11.420;2023-01-01T05:00:48;97912.47;;;14.24;72.39
8585;BME280;7180;52.742;11.420;2023-01-01T05:03:14;97913.88;;;14.12;72.49
8585;BME280;7180;52.742;11.420;2023-01-01T05:05:40;97912.06;;;14.13;72.40
8585;BME280;7180;52.742;11.420;2023-01-01T05:08:05;97885.44;;;14.22;72.11
8585;BME280;7180;52.742;11.420;2023-01-01T05:10:30;97857.41;;;14.36;71.35
8585;BME280;7180;52.742;11.420;2023-01-01T05:12:55;97837.56;;;14.17;71.80
8585;BME280;7180;52.742;11.420;2023-01-01T05:15:21;97842.69;;;14.19;71.73
8585;BME280;7180;52.742;11.420;2023-01-01T05:17:46;97900.91;;;14.03;71.99
8585;BME280;7180;52.742;11.420;2023-01-01T05:20:11;97891.22;;;14.18;71.70
8585;BME280;7180;52.742;11.420;2023-01-01T05:22:36;97843.91;;;14.08;71.62
8585;BME280;7180;52.742;11.420;2023-01-01T05:25:02;97814.50;;;14.11;71.30
8585;BME280;7180;52.742;11.420;2023-01-01T05:27:27;97826.84;;;13.96;71.66
8585;BME280;7180;52.742;11.420;2023-01-01T05:29:52;97822.25;;;13.90;71.72
8585;BME280;7180;52.742;11.420;2023-01-01T05:32:17;97909.88;;;13.94;72.20
8585;BME280;7180;52.742;11.420;2023-01-01T05:34:43;97883.78;;;13.99;71.56
8585;BME280;7180;52.742;11.420;2023-01-01T05:37:08;97851.16;;;13.92;71.52
8585;BME280;7180;52.742;11.420;2023-01-01T05:39:33;97920.13;;;13.97;72.20
8585;BME280;7180;52.742;11.420;2023-01-01T05:41:58;97869.28;;;13.95;71.82
8585;BME280;7180;52.742;11.420;2023-01-01T05:44:24;97847.22;;;13.88;71.33
8585;BME280;7180;52.742;11.420;2023-01-01T05:46:49;97887.69;;;14.03;71.32
8585;BME280;7180;52.742;11.420;2023-01-01T05:49:14;97839.22;;;13.96;71.60
8585;BME280;7180;52.742;11.420;2023-01-01T05:51:39;97834.19;;;13.86;71.55
8585;BME280;7180;52.742;11.420;2023-01-01T05:54:05;97912.75;;;13.84;71.66
8585;BME280;7180;52.742;11.420;2023-01-01T05:56:30;97858.59;;;13.88;71.27
8585;BME280;7180;52.742;11.420;2023-01-01T05:58:56;97841.69;;;13.75;71.45
8585;BME280;7180;52.742;11.420;2023-01-01T06:01:27;97892.69;;;13.44;72.52
8585;BME280;7180;52.742;11.420;2023-01-01T06:03:53;97998.03;;;13.62;72.53
8585;BME280;7180;52.742;11.420;2023-01-01T06:06:24;97906.22;;;13.72;71.93
8585;BME280;7180;52.742;11.420;2023-01-01T06:08:50;97876.66;;;13.77;71.66
8585;BME280;7180;52.742;11.420;2023-01-01T06:11:16;97865.25;;;13.53;72.06
8585;BME280;7180;52.742;11.420;2023-01-01T06:13:41;97954.94;;;13.62;71.90
8585;BME280;7180;52.742;11.420;2023-01-01T06:16:08;97947.31;;;13.75;71.64
8585;BME280;7180;52.742;11.420;2023-01-01T06:18:34;97935.34;;;13.56;72.16
8585;BME280;7180;52.742;11.420;2023-01-01T06:23:29;98037.13;;;13.59;72.79
8585;BME280;7180;52.742;11.420;2023-01-01T06:25:54;98044.06;;;13.60;72.65
8585;BME280;7180;52.742;11.420;2023-01-01T06:28:19;98040.38;;;13.77;72.06
8585;BME280;7180;52.742;11.420;2023-01-01T06:30:44;97998.47;;;13.74;71.80
8585;BME280;7180;52.742;11.420;2023-01-01T06:33:10;98010.00;;;13.81;71.64
8585;BME280;7180;52.742;11.420;2023-01-01T06:35:35;98031.22;;;13.95;71.53
8585;BME280;7180;52.742;11.420;2023-01-01T06:38:00;97936.25;;;13.79;71.50
8585;BME280;7180;52.742;11.420;2023-01-01T06:40:26;97953.16;;;13.93;70.88
8585;BME280;7180;52.742;11.420;2023-01-01T06:42:51;97963.63;;;13.78;71.49
8585;BME280;7180;52.742;11.420;2023-01-01T06:45:16;97966.16;;;13.64;71.34
8585;BME280;7180;52.742;11.420;2023-01-01T06:47:41;98042.59;;;13.49;72.30
8585;BME280;7180;52.742;11.420;2023-01-01T06:50:07;98144.91;;;13.39;72.83
8585;BME280;7180;52.742;11.420;2023-01-01T06:52:32;98146.34;;;13.57;72.54
8585;BME280;7180;52.742;11.420;2023-01-01T06:54:58;98103.47;;;13.47;72.37
8585;BME280;7180;52.742;11.420;2023-01-01T06:57:23;98124.44;;;13.41;72.54
8585;BME280;7180;52.742;11.420;2023-01-01T06:59:49;98229.53;;;13.37;73.40
8585;BME280;7180;52.742;11.420;2023-01-01T07:02:14;98230.84;;;13.33;73.38
8585;BME280;7180;52.742;11.420;2023-01-01T07:04:39;98195.53;;;13.26;72.87
8585;BME280;7180;52.742;11.420;2023-01-01T07:07:04;98255.06;;;13.21;73.70
8585;BME280;7180;52.742;11.420;2023-01-01T07:09:30;98262.97;;;13.29;73.63
8585;BME280;7180;52.742;11.420;2023-01-01T07:11:55;98297.44;;;13.19;73.55
8585;BME280;7180;52.742;11.420;2023-01-01T07:14:20;98337.16;;;13.18;73.81
8585;BME280;7180;52.742;11.420;2023-01-01T07:16:46;98331.63;;;12.95;74.29
8585;BME280;7180;52.742;11.420;2023-01-01T07:19:11;98375.84;;;13.01;74.42
8585;BME280;7180;52.742;11.420;2023-01-01T07:21:43;98412.75;;;13.01;74.09
8585;BME280;7180;52.742;11.420;2023-01-01T07:24:11;98437.63;;;12.99;74.66
8585;BME280;7180;52.742;11.420;2023-01-01T07:26:37;98435.81;;;12.99;74.46
8585;BME280;7180;52.742;11.420;2023-01-01T07:29:02;98456.00;;;13.08;74.42
8585;BME280;7180;52.742;11.420;2023-01-01T07:31:28;98455.06;;;12.92;74.68
8585;BME280;7180;52.742;11.420;2023-01-01T07:33:53;98548.00;;;13.03;75.15
8585;BME280;7180;52.742;11.420;2023-01-01T07:36:18;98540.56;;;12.89;75.31
8585;BME280;7180;52.742;11.420;2023-01-01T07:38:43;98563.91;;;12.76;75.67
8585;BME280;7180;52.742;11.420;2023-01-01T07:41:09;98644.34;;;12.98;75.44
8585;BME280;7180;52.742;11.420;2023-01-01T07:43:34;98613.00;;;12.95;75.27
8585;BME280;7180;52.742;11.420;2023-01-01T07:46:00;98601.28;;;13.07;75.25
8585;BME280;7180;52.742;11.420;2023-01-01T07:48:25;98602.06;;;13.07;74.96
8585;BME280;7180;52.742;11.420;2023-01-01T07:50:51;98611.81;;;13.07;74.59
8585;BME280;7180;52.742;11.420;2023-01-01T07:53:16;98618.66;;;13.17;74.69
8585;BME280;7180;52.742;11.420;2023-01-01T07:55:41;98576.66;;;13.24;74.62
8585;BME280;7180;52.742;11.420;2023-01-01T07:58:08;98552.88;;;13.16;74.50
8585;BME280;7180;52.742;11.420;2023-01-01T08:00:33;98564.84;;;13.10;74.55
8585;BME280;7180;52.742;11.420;2023-01-01T08:02:59;98631.09;;;13.25;74.69
8585;BME280;7180;52.742;11.420;2023-01-01T08:05:24;98618.34;;;13.20;74.63
8585;BME280;7180;52.742;11.420;2023-01-01T08:07:50;98659.28;;;13.24;74.81
8585;BME280;7180;52.742;11.420;2023-01-01T08:10:16;98652.56;;;13.30;74.37
8585;BME280;7180;52.742;11.420;2023-01-01T08:12:43;98675.03;;;13.16;74.78
8585;BME280;7180;52.742;11.420;2023-01-01T08:15:09;98668.13;;;13.15;75.12
8585;BME280;7180;52.742;11.420;2023-01-01T08:17:35;98695.09;;;13.09;75.09
8585;BME280;7180;52.742;11.420;2023-01-01T08:20:00;98727.38;;;13.03;75.16
8585;BME280;7180;52.742;11.420;2023-01-01T08:22:25;98776.09;;;12.99;75.61
8585;BME280;7180;52.742;11.420;2023-01-01T08:24:51;98829.81;;;13.08;76.15
8585;BME280;7180;52.742;11.420;2023-01-01T08:27:16;98837.28;;;13.12;75.67
8585;BME280;7180;52.742;11.420;2023-01-01T08:29:42;98860.00;;;13.23;75.71
8585;BME280;7180;52.742;11.420;2023-01-01T08:32:08;98873.03;;;13.24;75.65
8585;BME280;7180;52.742;11.420;2023-01-01T08:34:33;98872.63;;;13.46;75.52
8585;BME280;7180;52.742;11.420;2023-01-01T08:36:58;98841.09;;;13.45;75.47
8585;BME280;7180;52.742;11.420;2023-01-01T08:39:24;98882.59;;;13.52;75.52
8585;BME280;7180;52.742;11.420;2023-01-01T08:41:49;98878.34;;;13.60;75.11
8585;BME280;7180;52.742;11.420;2023-01-01T08:44:14;98883.06;;;13.66;75.03
8585;BME280;7180;52.742;11.420;2023-01-01T08:46:40;98882.53;;;13.62;75.29
8585;BME280;7180;52.742;11.420;2023-01-01T08:49:05;98932.25;;;13.67;75.22
8585;BME280;7180;52.742;11.420;2023-01-01T08:51:30;98920.56;;;13.69;75.45
8585;BME280;7180;52.742;11.420;2023-01-01T08:53:55;98980.06;;;13.64;76.02
8585;BME280;7180;52.742;11.420;2023-01-01T08:56:21;99000.78;;;13.68;76.06
8585;BME280;7180;52.742;11.420;2023-01-01T08:58:46;99029.53;;;13.71;76.01
8585;BME280;7180;52.742;11.420;2023-01-01T09:01:12;98998.69;;;13.72;75.69
8585;BME280;7180;52.742;11.420;2023-01-01T09:03:37;99013.03;;;13.87;75.41
8585;BME280;7180;52.742;11.420;2023-01-01T09:06:03;98976.03;;;13.87;75.56
8585;BME280;7180;52.742;11.420;2023-01-01T09:08:28;98990.31;;;13.94;75.18
8585;BME280;7180;52.742;11.420;2023-01-01T09:11:00;98983.59;;;13.82;75.77
8585;BME280;7180;52.742;11.420;2023-01-01T09:13:26;98960.81;;;13.81;75.35
8585;BME280;7180;52.742;11.420;2023-01-01T09:15:52;99002.22;;;13.80;75.57
8585;BME280;7180;52.742;11.420;2023-01-01T09:18:18;99006.09;;;13.86;75.53
8585;BME280;7180;52.742;11.420;2023-01-01T09:20:43;98999.13;;;13.85;75.50
8585;BME280;7180;52.742;11.420;2023-01-01T09:23:09;99070.88;;;13.90;75.88
8585;BME280;7180;52.742;11.420;2023-01-01T09:25:35;99029.13;;;13.93;75.76
8585;BME280;7180;52.742;11.420;2023-01-01T09:28:03;99052.06;;;13.93;75.59
8585;BME280;7180;52.742;11.420;2023-01-01T09:30:29;99073.91;;;13.95;75.95
8585;BME280;7180;52.742;11.420;2023-01-01T09:32:54;99077.97;;;13.89;75.94
8585;BME280;7180;52.742;11.420;2023-01-01T09:35:20;99096.75;;;13.86;76.09
8585;BME280;7180;52.742;11.420;2023-01-01T09:37:46;99143.22;;;13.79;76.49
8585;BME280;7180;52.742;11.420;2023-01-01T09:40:53;99196.59;;;13.83;76.73
8585;BME280;7180;52.742;11.420;2023-01-01T09:43:45;99235.25;;;13.74;77.21
8585;BME280;7180;52.742;11.420;2023-01-01T09:46:14;99262.34;;;13.76;77.19
8585;BME280;7180;52.742;11.420;2023-01-01T09:48:47;99273.78;;;13.77;77.21
8585;BME280;7180;52.742;11.420;2023-01-01T09:51:17;99277.81;;;13.81;77.30
8585;BME280;7180;52.742;11.420;2023-01-01T09:53:49;99292.25;;;13.77;77.32
8585;BME280;7180;52.742;11.420;2023-01-01T09:56:25;99333.41;;;13.70;77.74
8585;BME280;7180;52.742;11.420;2023-01-01T09:58:51;99377.47;;;13.60;78.20
8585;BME280;7180;52.742;11.420;2023-01-01T10:15:55;99272.44;;;14.19;76.31
8585;BME280;7180;52.742;11.420;2023-01-01T10:18:25;99307.91;;;14.16;76.53
8585;BME280;7180;52.742;11.420;2023-01-01T10:21:14;99314.44;;;14.22;76.64
8585;BME280;7180;52.742;11.420;2023-01-01T10:23:45;99234.53;;;14.37;75.41
8585;BME280;7180;52.742;11.420;2023-01-01T10:26:16;99135.56;;;14.40;74.89
8585;BME280;7180;52.742;11.420;2023-01-01T10:28:48;99081.16;;;14.55;73.94
8585;BME280;7180;52.742;11.420;2023-01-01T10:31:20;99067.00;;;14.56;73.65
8585;BME280;7180;52.742;11.420;2023-01-01T10:33:48;99079.66;;;14.70;73.76
8585;BME280;7180;52.742;11.420;2023-01-01T10:36:16;99000.31;;;14.70;73.37
8585;BME280;7180;52.742;11.420;2023-01-01T10:38:42;98990.78;;;14.77;73.11
8585;BME280;7180;52.742;11.420;2023-01-01T10:41:09;98989.16;;;14.84;72.89
8585;BME280;7180;52.742;11.420;2023-01-01T10:43:35;98961.56;;;14.87;72.54
8585;BME280;7180;52.742;11.420;2023-01-01T10:46:01;98985.13;;;14.72;72.83
8585;BME280;7180;52.742;11.420;2023-01-01T10:48:29;98969.94;;;14.74;73.08
8585;BME280;7180;52.742;11.420;2023-01-01T10:50:57;98994.66;;;14.65;73.09
8585;BME280;7180;52.742;11.420;2023-01-01T10:58:51;98917.19;;;14.73;72.48
8585;BME280;7180;52.742;11.420;2023-01-01T11:06:37;99037.44;;;14.78;73.36
8585;BME280;7180;52.742;11.420;2023-01-01T11:09:05;99015.50;;;14.68;73.26
8585;BME280;7180;52.742;11.420;2023-01-01T11:11:44;99061.16;;;14.52;73.70
8585;BME280;7180;52.742;11.420;2023-01-01T11:14:22;99062.38;;;14.58;73.71
8585;BME280;7180;52.742;11.420;2023-01-01T11:16:50;99040.91;;;14.61;73.29
8585;BME280;7180;52.742;11.420;2023-01-01T11:19:33;99039.41;;;14.41;73.81
8585;BME280;7180;52.742;11.420;2023-01-01T11:22:00;99045.75;;;14.30;73.77
8585;BME280;7180;52.742;11.420;2023-01-01T11:24:27;99089.72;;;14.49;73.42
8585;BME280;7180;52.742;11.420;2023-01-01T11:27:11;99016.97;;;14.45;73.22
8585;BME280;7180;52.742;11.420;2023-01-01T11:29:37;98993.47;;;14.42;73.12
8585;BME280;7180;52.742;11.420;2023-01-01T11:32:06;99021.19;;;14.38;73.64
8585;BME280;7180;52.742;11.420;2023-01-01T11:34:40;99013.09;;;14.57;72.80
8585;BME280;7180;52.742;11.420;2023-01-01T11:37:13;98946.13;;;14.74;72.14
8585;BME280;7180;52.742;11.420;2023-01-01T11:39:45;98895.50;;;14.69;72.42
8585;BME280;7180;52.742;11.420;2023-01-01T11:42:17;98830.66;;;14.65;71.58
8585;BME280;7180;52.742;11.420;2023-01-01T11:44:46;98908.34;;;14.64;72.61
8585;BME280;7180;52.742;11.420;2023-01-01T11:47:30;98927.84;;;14.63;72.20
8585;BME280;7180;52.742;11.420;2023-01-01T11:52:38;99041.81;;;14.52;73.13
8585;BME280;7180;52.742;11.420;2023-01-01T11:55:17;99126.28;;;14.36;74.01
8585;BME280;7180;52.742;11.420;2023-01-01T11:57:51;99186.78;;;14.39;74.58
8585;BME280;7180;52.742;11.420;2023-01-01T12:00:18;99262.38;;;14.32;74.98
8585;BME280;7180;52.742;11.420;2023-01-01T12:02:55;99289.38;;;14.26;75.58
8585;BME280;7180;52.742;11.420;2023-01-01T12:05:27;99404.59;;;14.19;76.31
8585;BME280;7180;52.742;11.420;2023-01-01T12:08:02;99469.13;;;14.07;77.23
8585;BME280;7180;52.742;11.420;2023-01-01T12:10:39;99530.63;;;14.09;77.56
8585;BME280;7180;52.742;11.420;2023-01-01T12:13:12;99551.75;;;13.90;78.19
8585;BME280;7180;52.742;11.420;2023-01-01T12:15:48;99635.97;;;13.74;78.92
8585;BME280;7180;52.742;11.420;2023-01-01T12:18:21;99714.34;;;13.73;79.94
8585;BME280;7180;52.742;11.420;2023-01-01T12:20:57;99775.63;;;13.46;80.39
8585;BME280;7180;52.742;11.420;2023-01-01T12:23:23;99879.56;;;13.45;81.67
8585;BME280;7180;52.742;11.420;2023-01-01T12:31:36;100074.75;;;13.37;83.91
8585;BME280;7180;52.742;11.420;2023-01-01T12:34:17;100107.63;;;13.33;84.47
8585;BME280;7180;52.742;11.420;2023-01-01T12:42:44;100085.78;;;13.42;84.00
8585;BME280;7180;52.742;11.420;2023-01-01T12:45:31;100020.63;;;13.43;83.09
8585;BME280;7180;52.742;11.420;2023-01-01T12:48:38;99926.31;;;13.66;81.74
8585;BME280;7180;52.742;11.420;2023-01-01T12:51:28;99838.13;;;13.57;80.63
8585;BME280;7180;52.742;11.420;2023-01-01T12:54:08;99829.97;;;13.49;80.69
8585;BME280;7180;52.742;11.420;2023-01-01T12:56:53;99852.06;;;13.48;80.47
8585;BME280;7180;52.742;11.420;2023-01-01T12:59:26;99851.09;;;13.49;80.23
8585;BME280;7180;52.742;11.420;2023-01-01T13:01:55;99865.75;;;13.53;80.03
8585;BME280;7180;52.742;11.420;2023-01-01T13:04:22;99883.94;;;13.35;80.60
8585;BME280;7180;52.742;11.420;2023-01-01T13:06:57;99948.50;;;13.31;80.70
8585;BME280;7180;52.742;11.420;2023-01-01T13:09:30;100086.22;;;13.14;82.01
8585;BME280;7180;52.742;11.420;2023-01-01T13:12:10;100109.00;;;12.70;83.62
8585;BME280;7180;52.742;11.420;2023-01-01T13:14:45;100189.25;;;12.55;84.29
8585;BME280;7180;52.742;11.420;2023-01-01T13:17:21;100316.59;;;12.31;86.06
8585;BME280;7180;52.742;11.420;2023-01-01T13:19:49;100455.16;;;12.35;87.54
8585;BME280;7180;52.742;11.420;2023-01-01T13:33:25;100737.06;;;11.84;94.63
8585;BME280;7180;52.742;11.420;2023-01-01T13:43:51;100880.91;;;11.57;99.08
8585;BME280;7180;52.742;11.420;2023-01-01T13:46:23;100908.09;;;11.57;100.00
8585;BME280;7180;52.742;11.420;2023-01-01T13:51:54;100941.81;;;11.50;100.00
8585;BME280;7180;52.742;11.420;2023-01-01T13:54:46;100962.72;;;11.38;100.00
8585;BME280;7180;52.742;11.420;2023-01-01T14:00:53;100971.88;;;11.46;100.00
8585;BME280;7180;52.742;11.420;2023-01-01T14:03:23;100982.41;;;11.46;100.00
8585;BME280;7180;52.742;11.420;2023-01-01T14:05:58;100998.97;;;11.48;100.00
8585;BME280;7180;52.742;11.420;2023-01-01T14:08:30;100992.44;;;11.56;100.00
8585;BME280;7180;52.742;11.420;2023-01-01T14:10:57;100989.31;;;11.49;100.00
8585;BME280;7180;52.742;11.420;2023-01-01T14:13:27;101006.78;;;11.50;100.00
8585;BME280;7180;52.742;11.420;2023-01-01T14:18:46;101029.56;;;11.51;100.00
8585;BME280;7180;52.742;11.420;2023-01-01T14:21:15;101020.03;;;11.48;100.00
8585;BME280;7180;52.742;11.420;2023-01-01T14:23:48;101030.25;;;11.55;100.00
8585;BME280;7180;52.742;11.420;2023-01-01T14:26:17;101021.59;;;11.52;100.00
8585;BME280;7180;52.742;11.420;2023-01-01T14:28:44;101028.53;;;11.53;100.00
8585;BME280;7180;52.742;11.420;2023-01-01T14:31:12;101017.25;;;11.52;100.00
8585;BME280;7180;52.742;11.420;2023-01-01T14:33:39;101012.91;;;11.50;100.00
8585;BME280;7180;52.742;11.420;2023-01-01T14:36:13;101012.59;;;11.57;100.00
8585;BME280;7180;52.742;11.420;2023-01-01T14:38:44;101017.84;;;11.57;100.00
8585;BME280;7180;52.742;11.420;2023-01-01T14:41:18;101008.50;;;11.51;100.00
8585;BME280;7180;52.742;11.420;2023-01-01T14:43:47;101032.88;;;11.55;100.00
8585;BME280;7180;52.742;11.420;2023-01-01T14:46:16;101022.69;;;11.48;100.00
8585;BME280;7180;52.742;11.420;2023-01-01T14:48:44;101015.47;;;11.36;100.00
8585;BME280;7180;52.742;11.420;2023-01-01T14:51:13;101040.34;;;11.31;100.00
8585;BME280;7180;52.742;11.420;2023-01-01T14:53:40;101051.44;;;11.20;100.00
8585;BME280;7180;52.742;11.420;2023-01-01T14:56:06;101064.16;;;11.12;100.00
8585;BME280;7180;52.742;11.420;2023-01-01T14:58:33;101078.56;;;11.05;100.00
8585;BME280;7180;52.742;11.420;2023-01-01T15:01:13;101075.53;;;10.80;100.00